Bald Mountain, New York
Current Conditions -  °F | °C
As of 8:53 PM on Wednesday 17 Dec 2014 (Local Time) from KGFL Reporting Station
Light Rain Light Rain  
Wind Chill: 30°   Ceiling: 4700
Heat Index: 37°   Visibility: 10mi
Dew Point: 30°   Wind: 9mph
Humidity: 76%   Direction: 220°SW
Pressure: 29.81"   Gusts: NA
Location:  43.09°N, 73.5018°W
Report Text: KGFL 180153Z AUTO 22008KT 10SM -RA BKN047 OVC075 03/M01 A2981 RMK AO2 RAB32 SLP101 P0000 T00281011
Loading
Personal Weather Stations






























Interactive Weather Map New forecast layout! Learn more

10-Day Weather Forecast

Advertisements
Track Severe Weather on mobile